sensor_id;sensor_type;location;lat;lon;timestamp;P1;P2;P0
74434;PMS7003;62867;52.038;29.256;2023-12-29T00:02:08;1;1;0.8
74434;PMS7003;62867;52.038;29.256;2023-12-29T00:07:09;2.2;2.2;1.8
74434;PMS7003;62867;52.038;29.256;2023-12-29T00:12:21;1;1;0.8
74434;PMS7003;62867;52.038;29.256;2023-12-29T00:17:23;1.4;1.4;1.4
74434;PMS7003;62867;52.038;29.256;2023-12-29T00:22:01;1.6;1.4;1.2
74434;PMS7003;62867;52.038;29.256;2023-12-29T00:26:37;1.6;1.2;1
74434;PMS7003;62867;52.038;29.256;2023-12-29T00:31:59;2;1.6;0.8
74434;PMS7003;62867;52.038;29.256;2023-12-29T00:37:09;1.4;1;0.8
74434;PMS7003;62867;52.038;29.256;2023-12-29T00:41:57;1.4;1.4;0.8
74434;PMS7003;62867;52.038;29.256;2023-12-29T00:46:37;1.5;1.5;1
74434;PMS7003;62867;52.038;29.256;2023-12-29T00:52:23;1.4;1.4;0.8
74434;PMS7003;62867;52.038;29.256;2023-12-29T00:57:11;1.4;1.4;1
74434;PMS7003;62867;52.038;29.256;2023-12-29T01:02:01;1.4;1.4;1
74434;PMS7003;62867;52.038;29.256;2023-12-29T01:06:51;0.8;0.8;0.8
74434;PMS7003;62867;52.038;29.256;2023-12-29T01:12:09;1.6;1.6;1
74434;PMS7003;62867;52.038;29.256;2023-12-29T01:16:33;1.4;1.2;0.6
74434;PMS7003;62867;52.038;29.256;2023-12-29T01:22:23;1.4;1.4;0.8
74434;PMS7003;62867;52.038;29.256;2023-12-29T01:26:31;1.4;1.4;1.2
74434;PMS7003;62867;52.038;29.256;2023-12-29T01:31:53;1.4;1.2;1
74434;PMS7003;62867;52.038;29.256;2023-12-29T01:36:37;1.2;1.2;0.6
74434;PMS7003;62867;52.038;29.256;2023-12-29T01:42:04;1.4;1.4;1
74434;PMS7003;62867;52.038;29.256;2023-12-29T01:47:10;1.5;1.5;0.8
74434;PMS7003;62867;52.038;29.256;2023-12-29T01:52:09;2;1.2;1
74434;PMS7003;62867;52.038;29.256;2023-12-29T01:56:48;1.8;1.4;1.2
74434;PMS7003;62867;52.038;29.256;2023-12-29T02:01:41;1;0.8;0.6
74434;PMS7003;62867;52.038;29.256;2023-12-29T02:06:31;0.8;0.8;0.6
74434;PMS7003;62867;52.038;29.256;2023-12-29T02:12:23;1.2;0.8;0.8
74434;PMS7003;62867;52.038;29.256;2023-12-29T02:16:38;1.6;1.4;0.8
74434;PMS7003;62867;52.038;29.256;2023-12-29T02:21:47;1;1;1
74434;PMS7003;62867;52.038;29.256;2023-12-29T02:27:12;1.6;1.4;1.4
74434;PMS7003;62867;52.038;29.256;2023-12-29T02:31:34;3.2;2.8;2.2
74434;PMS7003;62867;52.038;29.256;2023-12-29T02:37:04;1.8;1.2;1
74434;PMS7003;62867;52.038;29.256;2023-12-29T02:41:31;2;1.6;1.4
74434;PMS7003;62867;52.038;29.256;2023-12-29T02:47:04;1.8;1.8;1.4
74434;PMS7003;62867;52.038;29.256;2023-12-29T02:52:23;2;1.8;1.3
74434;PMS7003;62867;52.038;29.256;2023-12-29T02:56:31;1.4;1.2;0.8
74434;PMS7003;62867;52.038;29.256;2023-12-29T03:01:45;2.2;1.6;1
74434;PMS7003;62867;52.038;29.256;2023-12-29T03:07:01;1.6;1.4;1
74434;PMS7003;62867;52.038;29.256;2023-12-29T03:11:31;1.8;1.8;1.4
74434;PMS7003;62867;52.038;29.256;2023-12-29T03:16:51;1.6;1.4;1
74434;PMS7003;62867;52.038;29.256;2023-12-29T03:21:33;2;2;1
74434;PMS7003;62867;52.038;29.256;2023-12-29T03:26:47;1.6;1.6;1
74434;PMS7003;62867;52.038;29.256;2023-12-29T03:32:23;1.4;1.4;1
74434;PMS7003;62867;52.038;29.256;2023-12-29T03:36:31;6.8;6.8;5.6
74434;PMS7003;62867;52.038;29.256;2023-12-29T03:42:05;2.4;1.8;1.4
74434;PMS7003;62867;52.038;29.256;2023-12-29T03:46:55;1.2;1.2;1.2
74434;PMS7003;62867;52.038;29.256;2023-12-29T03:52:24;2.3;1.8;1.3
74434;PMS7003;62867;52.038;29.256;2023-12-29T03:56:53;1.8;1.4;1.2
74434;PMS7003;62867;52.038;29.256;2023-12-29T04:01:49;2;1.8;1.2
74434;PMS7003;62867;52.038;29.256;2023-12-29T04:07:07;2.8;2.2;1.6
74434;PMS7003;62867;52.038;29.256;2023-12-29T04:12:04;1.4;1.4;1
74434;PMS7003;62867;52.038;29.256;2023-12-29T04:16:31;1.8;1.8;1.4
74434;PMS7003;62867;52.038;29.256;2023-12-29T04:21:57;1.8;1.8;1.2
74434;PMS7003;62867;52.038;29.256;2023-12-29T04:27:11;1.8;1.8;1.2
74434;PMS7003;62867;52.038;29.256;2023-12-29T04:31:43;2.4;2.4;1.6
74434;PMS7003;62867;52.038;29.256;2023-12-29T04:37:23;2.6;2.2;1.6
74434;PMS7003;62867;52.038;29.256;2023-12-29T04:42:23;1.8;1.8;1.6
74434;PMS7003;62867;52.038;29.256;2023-12-29T04:46:33;2;1.8;1.2
74434;PMS7003;62867;52.038;29.256;2023-12-29T04:51:43;3;2.8;2
74434;PMS7003;62867;52.038;29.256;2023-12-29T04:56:39;1.2;1.2;1
74434;PMS7003;62867;52.038;29.256;2023-12-29T05:02:11;2.4;2;1.6
74434;PMS7003;62867;52.038;29.256;2023-12-29T05:07:23;3;2.8;2.2
74434;PMS7003;62867;52.038;29.256;2023-12-29T05:11:57;3.4;2.8;2.2
74434;PMS7003;62867;52.038;29.256;2023-12-29T05:17:25;3.4;3;2
74434;PMS7003;62867;52.038;29.256;2023-12-29T05:22:25;3.2;2.8;2.2
74434;PMS7003;62867;52.038;29.256;2023-12-29T05:26:31;3;3;2.6
74434;PMS7003;62867;52.038;29.256;2023-12-29T05:31:43;2.8;2.8;2
74434;PMS7003;62867;52.038;29.256;2023-12-29T05:37:05;4.6;3.4;2.8
74434;PMS7003;62867;52.038;29.256;2023-12-29T05:42:11;6;5;3.2
74434;PMS7003;62867;52.038;29.256;2023-12-29T05:47:23;4.4;4;2.8
74434;PMS7003;62867;52.038;29.256;2023-12-29T05:51:45;4.5;4.3;2.8
74434;PMS7003;62867;52.038;29.256;2023-12-29T05:57:05;5.2;4.6;3.4
74434;PMS7003;62867;52.038;29.256;2023-12-29T06:02:04;6;5.2;3.2
74434;PMS7003;62867;52.038;29.256;2023-12-29T06:06:57;3.4;3.2;2.4
74434;PMS7003;62867;52.038;29.256;2023-12-29T06:11:55;3.6;3.6;2
74434;PMS7003;62867;52.038;29.256;2023-12-29T06:17:23;4.2;4.2;2.8
74434;PMS7003;62867;52.038;29.256;2023-12-29T06:22:26;4.2;4;2.8
74434;PMS7003;62867;52.038;29.256;2023-12-29T06:27:04;4;3.6;2.8
74434;PMS7003;62867;52.038;29.256;2023-12-29T06:31:31;3.8;3;2.4
74434;PMS7003;62867;52.038;29.256;2023-12-29T06:37:24;2.8;2.4;2.2
74434;PMS7003;62867;52.038;29.256;2023-12-29T06:41:50;3.4;3.2;2.2
74434;PMS7003;62867;52.038;29.256;2023-12-29T06:46:44;4.6;3.6;2.6
74434;PMS7003;62867;52.038;29.256;2023-12-29T06:52:14;4;3.5;2.3
74434;PMS7003;62867;52.038;29.256;2023-12-29T06:57:09;3.8;3.6;3
74434;PMS7003;62867;52.038;29.256;2023-12-29T07:01:50;4.8;3.4;2.6
74434;PMS7003;62867;52.038;29.256;2023-12-29T07:07:16;4.2;4;2.8
74434;PMS7003;62867;52.038;29.256;2023-12-29T07:12:28;4.4;4;2.8
74434;PMS7003;62867;52.038;29.256;2023-12-29T07:16:33;4.8;4;3
74434;PMS7003;62867;52.038;29.256;2023-12-29T07:21:32;5.8;4.6;3.6
74434;PMS7003;62867;52.038;29.256;2023-12-29T07:27:26;5;4.6;3.4
74434;PMS7003;62867;52.038;29.256;2023-12-29T07:32:26;5.2;5.2;4
74434;PMS7003;62867;52.038;29.256;2023-12-29T07:37:14;4.6;4.6;3.2
74434;PMS7003;62867;52.038;29.256;2023-12-29T07:42:12;5.2;5;3.4
74434;PMS7003;62867;52.038;29.256;2023-12-29T07:47:02;4.2;4;3.2
74434;PMS7003;62867;52.038;29.256;2023-12-29T07:52:10;4.8;4.8;3.2
74434;PMS7003;62867;52.038;29.256;2023-12-29T07:57:26;5;5;3.8
74434;PMS7003;62867;52.038;29.256;2023-12-29T08:01:44;5;4.6;3.4
74434;PMS7003;62867;52.038;29.256;2023-12-29T08:07:28;5.4;5.2;3.4
74434;PMS7003;62867;52.038;29.256;2023-12-29T08:11:32;4.4;4.4;3
74434;PMS7003;62867;52.038;29.256;2023-12-29T08:17:28;4.8;4.4;3.2
74434;PMS7003;62867;52.038;29.256;2023-12-29T08:22:04;4.6;4.2;3.2
74434;PMS7003;62867;52.038;29.256;2023-12-29T08:27:12;4.6;4.4;3.2
74434;PMS7003;62867;52.038;29.256;2023-12-29T08:31:46;5.2;4.6;3
74434;PMS7003;62867;52.038;29.256;2023-12-29T08:37:02;5.4;4.6;3.2
74434;PMS7003;62867;52.038;29.256;2023-12-29T08:41:32;4.8;4.6;3.6
74434;PMS7003;62867;52.038;29.256;2023-12-29T08:46:32;5;5;3.6
74434;PMS7003;62867;52.038;29.256;2023-12-29T08:52:14;5;5;3.6
74434;PMS7003;62867;52.038;29.256;2023-12-29T08:56:50;5;4.5;3.3
74434;PMS7003;62867;52.038;29.256;2023-12-29T09:02:28;5.2;4.8;3.4
74434;PMS7003;62867;52.038;29.256;2023-12-29T09:07:28;4.6;4.6;3.6
74434;PMS7003;62867;52.038;29.256;2023-12-29T09:12:04;5.2;4.8;3.2
74434;PMS7003;62867;52.038;29.256;2023-12-29T09:16:52;4.8;4.6;3.4
74434;PMS7003;62867;52.038;29.256;2023-12-29T09:21:32;5.2;5;3.6
74434;PMS7003;62867;52.038;29.256;2023-12-29T09:27:28;12.4;12.4;11.6
74434;PMS7003;62867;52.038;29.256;2023-12-29T09:31:34;7.8;7.4;5.8
74434;PMS7003;62867;52.038;29.256;2023-12-29T09:37:12;5;4.6;3.4
74434;PMS7003;62867;52.038;29.256;2023-12-29T09:42:26;9.6;7.8;6.6
74434;PMS7003;62867;52.038;29.256;2023-12-29T09:47:26;5.2;5;3.6
74434;PMS7003;62867;52.038;29.256;2023-12-29T09:51:52;5.4;5.4;4
74434;PMS7003;62867;52.038;29.256;2023-12-29T09:56:52;4.3;4.3;3.5
74434;PMS7003;62867;52.038;29.256;2023-12-29T10:01:54;5.8;5.4;4.6
74434;PMS7003;62867;52.038;29.256;2023-12-29T10:07:15;4.8;4.4;3.2
74434;PMS7003;62867;52.038;29.256;2023-12-29T10:12:24;4.4;4;3.2
74434;PMS7003;62867;52.038;29.256;2023-12-29T10:17:06;4.2;3.6;2.8
74434;PMS7003;62867;52.038;29.256;2023-12-29T10:21:48;3.6;3.2;2.6
74434;PMS7003;62867;52.038;29.256;2023-12-29T10:26:32;7.8;7;5.6
74434;PMS7003;62867;52.038;29.256;2023-12-29T10:31:52;4.4;4.2;3.8
74434;PMS7003;62867;52.038;29.256;2023-12-29T10:36:58;9.8;9;7.2
74434;PMS7003;62867;52.038;29.256;2023-12-29T10:42:12;7.6;7.6;7
74434;PMS7003;62867;52.038;29.256;2023-12-29T10:47:26;18;16.2;13.8
74434;PMS7003;62867;52.038;29.256;2023-12-29T10:51:32;12;11.4;10.4
74434;PMS7003;62867;52.038;29.256;2023-12-29T10:56:32;4;4;3
74434;PMS7003;62867;52.038;29.256;2023-12-29T11:02:22;4.2;3.8;2.8
74434;PMS7003;62867;52.038;29.256;2023-12-29T11:06:50;5.6;5.6;4.8
74434;PMS7003;62867;52.038;29.256;2023-12-29T11:12:12;4.4;4.2;3.6
74434;PMS7003;62867;52.038;29.256;2023-12-29T11:17:10;3.6;3.2;2.4
74434;PMS7003;62867;52.038;29.256;2023-12-29T11:21:52;5.4;5.4;4.4
74434;PMS7003;62867;52.038;29.256;2023-12-29T11:26:50;4.4;4.4;3.6
74434;PMS7003;62867;52.038;29.256;2023-12-29T11:31:38;3;3;2.2
74434;PMS7003;62867;52.038;29.256;2023-12-29T11:37:28;7;7;6.4
74434;PMS7003;62867;52.038;29.256;2023-12-29T11:42:26;7.6;7;6.6
74434;PMS7003;62867;52.038;29.256;2023-12-29T11:46:38;3;2.8;2.4
74434;PMS7003;62867;52.038;29.256;2023-12-29T11:51:32;2.6;2.6;2.4
74434;PMS7003;62867;52.038;29.256;2023-12-29T11:57:31;2.3;2.3;1.5
74434;PMS7003;62867;52.038;29.256;2023-12-29T12:01:33;4;4;3.2
74434;PMS7003;62867;52.038;29.256;2023-12-29T12:06:38;5;4.8;3.6
74434;PMS7003;62867;52.038;29.256;2023-12-29T12:12:41;6.4;6.2;4.6
74434;PMS7003;62867;52.038;29.256;2023-12-29T12:17:10;16.4;15.6;13.4
74434;PMS7003;62867;52.038;29.256;2023-12-29T12:22:22;7;6;5.4
74434;PMS7003;62867;52.038;29.256;2023-12-29T12:26:32;10;8.8;7.2
74434;PMS7003;62867;52.038;29.256;2023-12-29T12:32:26;6;6;4.8
74434;PMS7003;62867;52.038;29.256;2023-12-29T12:36:50;8.2;7.8;7
74434;PMS7003;62867;52.038;29.256;2023-12-29T12:42:12;5;4.8;3.2
74434;PMS7003;62867;52.038;29.256;2023-12-29T12:46:56;3.4;3.4;2.6
74434;PMS7003;62867;52.038;29.256;2023-12-29T12:51:34;6.2;6;5.6
74434;PMS7003;62867;52.038;29.256;2023-12-29T12:57:12;4.5;4;3.3
74434;PMS7003;62867;52.038;29.256;2023-12-29T13:01:52;4.4;4.4;3.8
74434;PMS7003;62867;52.038;29.256;2023-12-29T13:06:42;2.4;2.4;1.8
74434;PMS7003;62867;52.038;29.256;2023-12-29T13:11:32;3.6;3.2;2.4
74434;PMS7003;62867;52.038;29.256;2023-12-29T13:17:20;2.6;2.6;1.8
74434;PMS7003;62867;52.038;29.256;2023-12-29T13:21:52;2.8;2.8;2.2
74434;PMS7003;62867;52.038;29.256;2023-12-29T13:27:28;3.6;3.4;3.2
74434;PMS7003;62867;52.038;29.256;2023-12-29T13:32:26;3.8;3.4;2.8
74434;PMS7003;62867;52.038;29.256;2023-12-29T13:36:53;4.6;4.6;4
74434;PMS7003;62867;52.038;29.256;2023-12-29T13:41:40;3.4;3.4;2.4
74434;PMS7003;62867;52.038;29.256;2023-12-29T13:47:00;4.2;4;3
74434;PMS7003;62867;52.038;29.256;2023-12-29T13:52:26;4.4;3.8;3
74434;PMS7003;62867;52.038;29.256;2023-12-29T13:57:06;3.2;3;2.2
74434;PMS7003;62867;52.038;29.256;2023-12-29T14:01:52;2.8;2.8;2.5
74434;PMS7003;62867;52.038;29.256;2023-12-29T14:07:12;2.6;2.6;1.8
74434;PMS7003;62867;52.038;29.256;2023-12-29T14:12:26;3;3;2.4
74434;PMS7003;62867;52.038;29.256;2023-12-29T14:16:44;3;3;2.2
74434;PMS7003;62867;52.038;29.256;2023-12-29T14:21:50;3.2;2.6;1.8
74434;PMS7003;62867;52.038;29.256;2023-12-29T14:27:12;2.4;2.4;2.2
74434;PMS7003;62867;52.038;29.256;2023-12-29T14:32:26;3.6;3.4;2.4
74434;PMS7003;62867;52.038;29.256;2023-12-29T14:36:58;3.4;3.4;3
74434;PMS7003;62867;52.038;29.256;2023-12-29T14:41:32;8.4;8.4;7.4
74434;PMS7003;62867;52.038;29.256;2023-12-29T14:46:50;3;2.6;2.6
74434;PMS7003;62867;52.038;29.256;2023-12-29T14:51:54;4.2;3.6;3
74434;PMS7003;62867;52.038;29.256;2023-12-29T14:57:04;3;2.6;2
74434;PMS7003;62867;52.038;29.256;2023-12-29T15:02:28;2.5;2.3;2.3
74434;PMS7003;62867;52.038;29.256;2023-12-29T15:07:14;3;2.8;1.6
74434;PMS7003;62867;52.038;29.256;2023-12-29T15:12:04;7.2;6.2;5.6
74434;PMS7003;62867;52.038;29.256;2023-12-29T15:17:28;7.6;7.6;7.2
74434;PMS7003;62867;52.038;29.256;2023-12-29T15:21:42;8;7.6;6.8
74434;PMS7003;62867;52.038;29.256;2023-12-29T15:27:28;5;5;4.6
74434;PMS7003;62867;52.038;29.256;2023-12-29T15:31:46;3.6;3.4;2.4
74434;PMS7003;62867;52.038;29.256;2023-12-29T15:36:46;3.2;3;2
74434;PMS7003;62867;52.038;29.256;2023-12-29T15:42:12;3.2;3.2;2.2
74434;PMS7003;62867;52.038;29.256;2023-12-29T15:47:06;3.6;3.4;2
74434;PMS7003;62867;52.038;29.256;2023-12-29T15:51:52;3;2.6;2.2
74434;PMS7003;62867;52.038;29.256;2023-12-29T15:57:14;3.2;2.6;1.8
74434;PMS7003;62867;52.038;29.256;2023-12-29T16:02:28;4.5;3.8;2.5
74434;PMS7003;62867;52.038;29.256;2023-12-29T16:07:26;3.4;3;2
74434;PMS7003;62867;52.038;29.256;2023-12-29T16:12:14;3.6;2.8;2.2
74434;PMS7003;62867;52.038;29.256;2023-12-29T16:16:50;5;4.6;3.2
74434;PMS7003;62867;52.038;29.256;2023-12-29T16:21:48;4.2;4.2;3
74434;PMS7003;62867;52.038;29.256;2023-12-29T16:27:00;5.8;4.6;3.4
74434;PMS7003;62867;52.038;29.256;2023-12-29T16:31:52;5;4.6;3.4
74434;PMS7003;62867;52.038;29.256;2023-12-29T16:37:06;7.8;7.6;4.8
74434;PMS7003;62867;52.038;29.256;2023-12-29T16:42:12;4.2;3.8;3.2
74434;PMS7003;62867;52.038;29.256;2023-12-29T16:47:26;4.6;4.4;2.8
74434;PMS7003;62867;52.038;29.256;2023-12-29T16:51:38;4.6;4;2.8
74434;PMS7003;62867;52.038;29.256;2023-12-29T16:57:16;6.6;6.2;4.4
74434;PMS7003;62867;52.038;29.256;2023-12-29T17:01:32;6.5;6.5;4.5
74434;PMS7003;62867;52.038;29.256;2023-12-29T17:07:16;9.4;8.8;5.4
74434;PMS7003;62867;52.038;29.256;2023-12-29T17:12:06;7.8;7.6;4.6
74434;PMS7003;62867;52.038;29.256;2023-12-29T17:17:00;6;5.6;4
74434;PMS7003;62867;52.038;29.256;2023-12-29T17:21:52;4;3.6;2.6
74434;PMS7003;62867;52.038;29.256;2023-12-29T17:27:02;4.2;4.2;3
74434;PMS7003;62867;52.038;29.256;2023-12-29T17:32:14;3.2;3.2;2.4
74434;PMS7003;62867;52.038;29.256;2023-12-29T17:36:32;4.2;3.6;2.6
74434;PMS7003;62867;52.038;29.256;2023-12-29T17:42:24;3.8;3.2;2.6
74434;PMS7003;62867;52.038;29.256;2023-12-29T17:46:38;2.4;2.4;2
74434;PMS7003;62867;52.038;29.256;2023-12-29T17:52:18;3.6;3.6;2.6
74434;PMS7003;62867;52.038;29.256;2023-12-29T17:57:16;6.2;6;4
74434;PMS7003;62867;52.038;29.256;2023-12-29T18:02:26;5.5;5.3;4
74434;PMS7003;62867;52.038;29.256;2023-12-29T18:07:14;6;5.4;3.4
74434;PMS7003;62867;52.038;29.256;2023-12-29T18:11:54;5.4;5;3.2
74434;PMS7003;62867;52.038;29.256;2023-12-29T18:17:28;2.8;2.6;2.4
74434;PMS7003;62867;52.038;29.256;2023-12-29T18:22:14;3.2;2.6;2
74434;PMS7003;62867;52.038;29.256;2023-12-29T18:26:32;2.8;2.6;2
74434;PMS7003;62867;52.038;29.256;2023-12-29T18:32:26;3;2.6;1.8
74434;PMS7003;62867;52.038;29.256;2023-12-29T18:37:24;2.4;2.2;2
74434;PMS7003;62867;52.038;29.256;2023-12-29T18:42:06;2.2;2.2;1.4
74434;PMS7003;62867;52.038;29.256;2023-12-29T18:46:52;3.4;2.8;2
74434;PMS7003;62867;52.038;29.256;2023-12-29T18:52:28;3.8;3.8;3.2
74434;PMS7003;62867;52.038;29.256;2023-12-29T18:57:06;12.8;11.4;10.2
74434;PMS7003;62867;52.038;29.256;2023-12-29T19:01:32;5;4.8;3.8
74434;PMS7003;62867;52.038;29.256;2023-12-29T19:07:06;7;7;6.8
74434;PMS7003;62867;52.038;29.256;2023-12-29T19:11:58;5;4.8;4
74434;PMS7003;62867;52.038;29.256;2023-12-29T19:16:32;6.4;5.8;5
74434;PMS7003;62867;52.038;29.256;2023-12-29T19:22:28;6;5.8;4.8
74434;PMS7003;62867;52.038;29.256;2023-12-29T19:27:28;8.6;8.6;8
74434;PMS7003;62867;52.038;29.256;2023-12-29T19:32:14;7;6.8;5.8
74434;PMS7003;62867;52.038;29.256;2023-12-29T19:37:26;8.2;7.6;7.2
74434;PMS7003;62867;52.038;29.256;2023-12-29T19:41:42;3.6;3.6;2.8
74434;PMS7003;62867;52.038;29.256;2023-12-29T19:47:06;2.8;2.4;1.8
74434;PMS7003;62867;52.038;29.256;2023-12-29T19:51:32;3.2;3.2;2.4
74434;PMS7003;62867;52.038;29.256;2023-12-29T19:57:04;3.6;3.4;2.6
74434;PMS7003;62867;52.038;29.256;2023-12-29T20:02:00;2.2;2.2;1.8
74434;PMS7003;62867;52.038;29.256;2023-12-29T20:06:40;2.8;2.5;1.8
74434;PMS7003;62867;52.038;29.256;2023-12-29T20:12:11;2.4;2;1.8
74434;PMS7003;62867;52.038;29.256;2023-12-29T20:16:58;3.4;3.2;2.6
74434;PMS7003;62867;52.038;29.256;2023-12-29T20:21:44;3.2;3.2;2.6
74434;PMS7003;62867;52.038;29.256;2023-12-29T20:27:28;2.4;2.4;1.8
74434;PMS7003;62867;52.038;29.256;2023-12-29T20:32:28;2.2;2.2;1.6
74434;PMS7003;62867;52.038;29.256;2023-12-29T20:36:32;3;2.8;2
74434;PMS7003;62867;52.038;29.256;2023-12-29T20:42:06;2.6;2.4;1.8
74434;PMS7003;62867;52.038;29.256;2023-12-29T20:47:26;3;2.6;1.8
74434;PMS7003;62867;52.038;29.256;2023-12-29T20:51:54;3.6;3.4;2
74434;PMS7003;62867;52.038;29.256;2023-12-29T20:57:14;2.4;2;1.4
74434;PMS7003;62867;52.038;29.256;2023-12-29T21:02:06;2.6;2.4;1.6
74434;PMS7003;62867;52.038;29.256;2023-12-29T21:07:14;2;2;1.8
74434;PMS7003;62867;52.038;29.256;2023-12-29T21:12:26;2.8;2.6;1.6
74434;PMS7003;62867;52.038;29.256;2023-12-29T21:16:32;2.4;2.2;1.6
74434;PMS7003;62867;52.038;29.256;2023-12-29T21:22:26;3.2;3;2.6
74434;PMS7003;62867;52.038;29.256;2023-12-29T21:27:14;3.6;3;2.4
74434;PMS7003;62867;52.038;29.256;2023-12-29T21:32:26;3.8;3.4;2.4
74434;PMS7003;62867;52.038;29.256;2023-12-29T21:36:54;4;3.8;2.4
74434;PMS7003;62867;52.038;29.256;2023-12-29T21:42:14;3.8;3.6;2.6
74434;PMS7003;62867;52.038;29.256;2023-12-29T21:47:14;5;3;2.4
74434;PMS7003;62867;52.038;29.256;2023-12-29T21:52:06;4;3.4;2.2
74434;PMS7003;62867;52.038;29.256;2023-12-29T21:57:14;3.6;3.4;2.2
74434;PMS7003;62867;52.038;29.256;2023-12-29T22:01:52;3;2.8;2
74434;PMS7003;62867;52.038;29.256;2023-12-29T22:07:18;3.5;2.8;2
74434;PMS7003;62867;52.038;29.256;2023-12-29T22:11:44;2.6;2.6;1.8
74434;PMS7003;62867;52.038;29.256;2023-12-29T22:17:26;2.2;2.2;1.8
74434;PMS7003;62867;52.038;29.256;2023-12-29T22:22:26;3;2.8;1.6
74434;PMS7003;62867;52.038;29.256;2023-12-29T22:27:06;3;3;2.2
74434;PMS7003;62867;52.038;29.256;2023-12-29T22:31:32;3;2.4;1.8
74434;PMS7003;62867;52.038;29.256;2023-12-29T22:36:32;3;2.4;2
74434;PMS7003;62867;52.038;29.256;2023-12-29T22:42:26;3;2.8;2.2
74434;PMS7003;62867;52.038;29.256;2023-12-29T22:47:14;3.2;3;2
74434;PMS7003;62867;52.038;29.256;2023-12-29T22:52:00;3.4;3.2;1.6
74434;PMS7003;62867;52.038;29.256;2023-12-29T22:57:28;3.4;2.8;2.2
74434;PMS7003;62867;52.038;29.256;2023-12-29T23:02:26;3.4;3.2;2.4
74434;PMS7003;62867;52.038;29.256;2023-12-29T23:07:14;3.3;2.8;1.5
74434;PMS7003;62867;52.038;29.256;2023-12-29T23:12:06;2.8;2.8;2.2
74434;PMS7003;62867;52.038;29.256;2023-12-29T23:17:14;3.4;3.2;2.2
74434;PMS7003;62867;52.038;29.256;2023-12-29T23:22:12;2.8;2.8;1.8
74434;PMS7003;62867;52.038;29.256;2023-12-29T23:27:08;3.4;3.4;2.2
74434;PMS7003;62867;52.038;29.256;2023-12-29T23:32:18;3.6;3;2.2
74434;PMS7003;62867;52.038;29.256;2023-12-29T23:36:32;2.6;2.6;1.8
74434;PMS7003;62867;52.038;29.256;2023-12-29T23:41:50;3.2;3.2;2.2
74434;PMS7003;62867;52.038;29.256;2023-12-29T23:46:32;3.4;3.4;2.2
74434;PMS7003;62867;52.038;29.256;2023-12-29T23:52:26;3.8;3.4;2.2
74434;PMS7003;62867;52.038;29.256;2023-12-29T23:56:54;3.8;3.4;2.4
